createdAt,value
2022-07-30T00:02:25.937Z,20.21
2022-07-30T00:04:55.662Z,20.21
2022-07-30T00:07:25.399Z,19.86
2022-07-30T00:09:55.090Z,20.23
2022-07-30T00:12:24.756Z,20.33
2022-07-30T00:14:57.026Z,20.38
2022-07-30T00:17:26.713Z,20.28
2022-07-30T00:19:57.933Z,20.28
2022-07-30T00:22:28.938Z,20.30
2022-07-30T00:24:58.686Z,20.36
2022-07-30T00:27:28.386Z,20.20
2022-07-30T00:30:00.710Z,20.40
2022-07-30T00:32:30.491Z,20.39
2022-07-30T00:35:00.156Z,20.30
2022-07-30T00:37:29.798Z,19.94
2022-07-30T00:40:00.031Z,20.32
2022-07-30T00:42:40.141Z,20.33
2022-07-30T00:45:14.511Z,20.33
2022-07-30T00:47:44.853Z,20.35
2022-07-30T00:50:16.832Z,20.35
2022-07-30T00:52:47.445Z,20.39
2022-07-30T00:55:18.369Z,20.33
2022-07-30T00:57:48.430Z,20.12
2022-07-30T01:00:21.410Z,20.28
2022-07-30T01:02:51.171Z,20.23
2022-07-30T01:05:20.974Z,20.29
2022-07-30T01:07:51.648Z,20.30
2022-07-30T01:10:21.705Z,20.31
2022-07-30T01:12:52.874Z,20.18
2022-07-30T01:15:25.562Z,20.00
2022-07-30T01:18:00.470Z,20.28
2022-07-30T01:20:32.191Z,20.27
2022-07-30T01:23:11.442Z,20.25
2022-07-30T01:25:58.355Z,20.06
2022-07-30T01:28:32.873Z,20.12
2022-07-30T01:31:03.994Z,19.88
2022-07-30T01:33:36.319Z,20.14
2022-07-30T01:36:07.494Z,20.08
2022-07-30T01:38:38.177Z,20.02
2022-07-30T01:41:12.585Z,20.01
2022-07-30T01:43:44.253Z,19.92
2022-07-30T01:46:16.620Z,19.95
2022-07-30T01:48:49.655Z,19.77
2022-07-30T01:51:21.949Z,19.77
2022-07-30T01:53:56.096Z,19.94
2022-07-30T01:56:29.078Z,19.97
2022-07-30T01:59:07.656Z,20.08
2022-07-30T02:01:37.844Z,20.10
2022-07-30T02:04:07.825Z,20.05
2022-07-30T02:06:43.798Z,19.96
2022-07-30T02:09:22.404Z,20.05
2022-07-30T02:12:10.249Z,19.92
2022-07-30T02:14:44.286Z,20.10
2022-07-30T02:17:19.455Z,20.02
2022-07-30T02:19:54.098Z,19.97
2022-07-30T02:22:25.862Z,20.06
2022-07-30T02:24:57.869Z,20.10
2022-07-30T02:27:34.674Z,20.18
2022-07-30T02:30:09.415Z,20.07
2022-07-30T02:32:43.731Z,20.17
2022-07-30T02:35:22.143Z,19.98
2022-07-30T02:37:55.334Z,20.03
2022-07-30T02:40:27.889Z,20.04
2022-07-30T02:43:01.920Z,20.03
2022-07-30T02:45:33.470Z,20.03
2022-07-30T02:48:06.700Z,20.06
2022-07-30T02:50:37.580Z,19.97
2022-07-30T02:53:12.315Z,20.10
2022-07-30T02:55:44.760Z,20.04
2022-07-30T02:58:20.102Z,20.13
2022-07-30T03:00:52.115Z,20.07
2022-07-30T03:03:29.024Z,20.05
2022-07-30T03:06:00.882Z,20.04
2022-07-30T03:08:31.828Z,20.02
2022-07-30T03:11:03.370Z,20.06
2022-07-30T03:13:35.998Z,19.74
2022-07-30T03:16:10.431Z,20.07
2022-07-30T03:18:42.400Z,19.98
2022-07-30T03:21:14.433Z,19.81
2022-07-30T03:23:47.031Z,19.77
2022-07-30T03:26:17.781Z,19.95
2022-07-30T03:28:51.983Z,19.97
2022-07-30T03:31:21.837Z,19.78
2022-07-30T03:33:52.578Z,20.01
2022-07-30T03:36:23.398Z,19.90
2022-07-30T03:38:54.006Z,19.78
2022-07-30T03:41:25.308Z,19.89
2022-07-30T03:44:00.532Z,19.78
2022-07-30T03:46:30.572Z,19.65
2022-07-30T03:49:01.677Z,19.62
2022-07-30T03:51:32.937Z,19.51
2022-07-30T03:54:03.544Z,19.33
2022-07-30T03:56:42.920Z,19.19
2022-07-30T03:59:24.657Z,19.32
2022-07-30T04:01:54.407Z,19.45
2022-07-30T04:04:39.030Z,19.33
2022-07-30T04:07:08.866Z,19.41
2022-07-30T04:09:38.957Z,19.58
2022-07-30T04:12:28.164Z,19.60
2022-07-30T04:15:00.486Z,19.55
2022-07-30T04:17:35.911Z,19.75
2022-07-30T04:20:17.743Z,19.56
2022-07-30T04:22:49.362Z,19.75
2022-07-30T04:25:24.231Z,19.68
2022-07-30T04:28:03.436Z,19.72
2022-07-30T04:30:37.013Z,19.54
2022-07-30T04:33:08.387Z,19.32
2022-07-30T04:36:00.828Z,19.59
2022-07-30T04:38:35.380Z,19.52
2022-07-30T04:41:05.474Z,19.55
2022-07-30T04:43:55.812Z,19.36
2022-07-30T04:46:28.250Z,19.43
2022-07-30T04:48:58.029Z,19.52
2022-07-30T04:51:37.072Z,19.39
2022-07-30T04:54:15.083Z,19.35
2022-07-30T04:56:50.571Z,19.19
2022-07-30T04:59:27.822Z,19.26
2022-07-30T05:02:03.533Z,18.96
2022-07-30T05:04:37.728Z,19.16
2022-07-30T05:07:09.988Z,19.32
2022-07-30T05:09:42.895Z,19.20
2022-07-30T05:12:14.545Z,19.49
2022-07-30T05:14:48.186Z,19.73
2022-07-30T05:17:23.490Z,19.86
2022-07-30T05:19:55.367Z,19.88
2022-07-30T05:22:30.143Z,19.96
2022-07-30T05:25:01.112Z,19.98
2022-07-30T05:27:31.950Z,19.75
2022-07-30T05:30:03.038Z,19.69
2022-07-30T05:32:42.086Z,20.04
2022-07-30T05:35:12.841Z,20.07
2022-07-30T05:37:42.846Z,20.00
2022-07-30T05:40:15.187Z,19.85
2022-07-30T05:43:04.421Z,20.23
2022-07-30T05:45:36.384Z,20.20
2022-07-30T05:48:10.339Z,20.17
2022-07-30T05:50:41.401Z,20.02
2022-07-30T05:53:12.252Z,20.41
2022-07-30T05:56:02.577Z,20.28
2022-07-30T05:59:01.276Z,20.36
2022-07-30T06:02:03.476Z,20.43
2022-07-30T06:05:03.496Z,20.43
2022-07-30T06:07:34.926Z,20.46
2022-07-30T06:10:06.616Z,20.37
2022-07-30T06:12:37.404Z,20.64
2022-07-30T06:15:11.098Z,20.58
2022-07-30T06:17:57.078Z,20.53
2022-07-30T06:20:46.768Z,20.45
2022-07-30T06:23:27.276Z,20.40
2022-07-30T06:26:22.505Z,20.59
2022-07-30T06:28:53.499Z,20.67
2022-07-30T06:31:30.799Z,20.74
2022-07-30T06:34:01.677Z,20.72
2022-07-30T06:36:40.429Z,20.68
2022-07-30T06:39:56.592Z,20.94
2022-07-30T06:42:41.426Z,21.00
2022-07-30T06:45:38.173Z,21.24
2022-07-30T06:48:22.276Z,21.18
2022-07-30T06:50:53.024Z,21.31
2022-07-30T06:53:26.545Z,21.38
2022-07-30T06:56:16.577Z,21.38
2022-07-30T06:58:58.102Z,21.22
2022-07-30T07:01:47.928Z,21.33
2022-07-30T07:04:19.041Z,21.15
2022-07-30T07:06:49.832Z,21.40
2022-07-30T07:09:34.035Z,21.42
2022-07-30T07:12:29.530Z,21.51
2022-07-30T07:15:00.243Z,21.57
2022-07-30T07:17:31.974Z,21.98
2022-07-30T07:20:22.878Z,21.69
2022-07-30T07:22:59.273Z,21.81
2022-07-30T07:25:32.575Z,21.75
2022-07-30T07:28:11.893Z,21.80
2022-07-30T07:30:44.844Z,21.66
2022-07-30T07:33:16.450Z,21.48
2022-07-30T07:35:50.493Z,21.65
2022-07-30T07:38:38.014Z,21.61
2022-07-30T07:41:11.415Z,21.83
2022-07-30T07:43:42.813Z,22.15
2022-07-30T07:46:33.879Z,22.48
2022-07-30T07:49:07.286Z,22.71
2022-07-30T07:51:47.152Z,22.75
2022-07-30T07:54:22.800Z,22.55
2022-07-30T07:56:59.156Z,22.44
2022-07-30T07:59:40.862Z,22.36
2022-07-30T08:02:27.835Z,22.26
2022-07-30T08:05:02.658Z,22.48
2022-07-30T08:08:10.752Z,22.40
2022-07-30T08:11:15.590Z,22.56
2022-07-30T08:14:14.502Z,22.62
2022-07-30T08:17:03.023Z,22.81
2022-07-30T08:19:54.580Z,22.71
2022-07-30T08:22:26.339Z,21.35
2022-07-30T08:24:57.578Z,22.41
2022-07-30T08:27:27.283Z,22.26
2022-07-30T08:29:59.598Z,22.23
2022-07-30T08:32:29.361Z,22.65
2022-07-30T08:35:00.113Z,23.40
2022-07-30T08:37:30.084Z,23.94
2022-07-30T08:39:59.958Z,24.15
2022-07-30T08:42:31.109Z,24.39
2022-07-30T08:45:04.892Z,24.25
2022-07-30T08:47:37.413Z,24.49
2022-07-30T08:50:16.647Z,24.16
2022-07-30T08:53:07.129Z,23.94
2022-07-30T08:55:37.063Z,24.29
2022-07-30T08:58:09.303Z,24.43
2022-07-30T09:00:41.739Z,23.98
2022-07-30T09:03:11.492Z,23.81
2022-07-30T09:05:41.849Z,23.85
2022-07-30T09:08:12.663Z,23.94
2022-07-30T09:10:53.220Z,24.44
2022-07-30T09:13:29.912Z,24.56
2022-07-30T09:16:05.626Z,24.60
2022-07-30T09:18:44.561Z,24.43
2022-07-30T09:21:20.952Z,24.26
2022-07-30T09:23:59.411Z,24.75
2022-07-30T09:26:59.226Z,25.01
2022-07-30T09:29:59.085Z,24.99
2022-07-30T09:32:56.328Z,24.82
2022-07-30T09:35:46.859Z,24.64
2022-07-30T09:38:46.238Z,24.47
2022-07-30T09:41:39.998Z,24.29
2022-07-30T09:44:27.052Z,24.35
2022-07-30T09:47:03.088Z,24.62
2022-07-30T09:49:43.570Z,24.50
2022-07-30T09:52:30.434Z,24.75
2022-07-30T09:55:01.432Z,24.76
2022-07-30T09:57:34.997Z,24.97
2022-07-30T10:00:24.215Z,24.73
2022-07-30T10:03:33.076Z,24.98
2022-07-30T10:06:37.843Z,25.13
2022-07-30T10:09:30.476Z,25.31
2022-07-30T10:12:02.660Z,25.51
2022-07-30T10:14:42.633Z,25.51
2022-07-30T10:17:15.887Z,25.73
2022-07-30T10:20:10.436Z,25.85
2022-07-30T10:23:07.989Z,25.78
2022-07-30T10:25:49.309Z,25.90
2022-07-30T10:29:00.252Z,26.12
2022-07-30T10:31:49.390Z,26.38
2022-07-30T10:34:26.081Z,26.34
2022-07-30T10:37:03.404Z,26.62
2022-07-30T10:39:40.736Z,26.67
2022-07-30T10:42:23.099Z,26.76
2022-07-30T10:45:17.554Z,26.64
2022-07-30T10:47:49.551Z,26.70
2022-07-30T10:50:22.698Z,26.71
2022-07-30T10:52:54.321Z,26.91
2022-07-30T10:55:36.836Z,26.95
2022-07-30T10:58:10.339Z,26.96
2022-07-30T11:01:03.137Z,26.90
2022-07-30T11:03:41.432Z,26.88
2022-07-30T11:06:38.705Z,26.82
2022-07-30T11:09:40.784Z,26.77
2022-07-30T11:12:15.701Z,26.82
2022-07-30T11:15:07.495Z,27.28
2022-07-30T11:18:13.033Z,27.19
2022-07-30T11:20:48.613Z,27.42
2022-07-30T11:23:40.812Z,27.36
2022-07-30T11:26:14.490Z,27.10
2022-07-30T11:28:49.719Z,27.38
2022-07-30T11:31:56.980Z,27.47
2022-07-30T11:34:30.592Z,27.52
2022-07-30T11:37:19.286Z,27.64
2022-07-30T11:40:14.762Z,27.55
2022-07-30T11:42:45.684Z,26.96
2022-07-30T11:45:35.199Z,27.16
2022-07-30T11:48:11.872Z,27.10
2022-07-30T11:50:42.027Z,27.39
2022-07-30T11:53:16.511Z,27.42
2022-07-30T11:55:48.587Z,27.48
2022-07-30T11:58:28.081Z,27.78
2022-07-30T12:01:02.033Z,27.89
2022-07-30T12:03:34.593Z,28.08
2022-07-30T12:06:07.701Z,28.03
2022-07-30T12:08:44.653Z,27.97
2022-07-30T12:11:16.602Z,27.69
2022-07-30T12:13:57.395Z,27.50
2022-07-30T12:16:30.902Z,27.61
2022-07-30T12:19:05.323Z,27.64
2022-07-30T12:21:35.996Z,27.53
2022-07-30T12:24:07.695Z,27.37
2022-07-30T12:26:37.717Z,27.33
2022-07-30T12:29:10.187Z,27.23
2022-07-30T12:31:45.265Z,27.27
2022-07-30T12:34:25.937Z,27.23
2022-07-30T12:36:57.766Z,27.14
2022-07-30T12:39:29.352Z,27.06
2022-07-30T12:41:59.180Z,27.05
2022-07-30T12:44:40.890Z,27.13
2022-07-30T12:47:25.850Z,27.23
2022-07-30T12:49:56.904Z,27.29
2022-07-30T12:52:30.781Z,27.54
2022-07-30T12:55:03.089Z,27.32
2022-07-30T12:57:58.013Z,27.39
2022-07-30T13:00:30.488Z,27.36
2022-07-30T13:03:02.845Z,27.04
2022-07-30T13:05:50.042Z,27.37
2022-07-30T13:08:20.305Z,27.31
2022-07-30T13:11:00.337Z,27.22
2022-07-30T13:13:31.062Z,27.15
2022-07-30T13:16:03.402Z,27.18
2022-07-30T13:18:37.998Z,27.29
2022-07-30T13:21:09.964Z,27.20
2022-07-30T13:23:40.800Z,27.16
2022-07-30T13:26:13.673Z,27.18
2022-07-30T13:28:43.396Z,27.14
2022-07-30T13:31:13.072Z,27.21
2022-07-30T13:33:45.414Z,27.39
2022-07-30T13:36:15.155Z,27.24
2022-07-30T13:38:45.428Z,27.48
2022-07-30T13:41:21.943Z,27.55
2022-07-30T13:43:51.715Z,27.80
2022-07-30T13:46:22.441Z,27.68
2022-07-30T13:48:55.055Z,27.79
2022-07-30T13:51:25.239Z,27.89
2022-07-30T13:53:55.152Z,28.02
2022-07-30T13:56:24.966Z,28.10
2022-07-30T13:58:56.296Z,28.03
2022-07-30T14:01:26.284Z,28.07
2022-07-30T14:03:58.708Z,28.10
2022-07-30T14:06:28.487Z,28.01
2022-07-30T14:08:58.550Z,28.02
2022-07-30T14:11:28.390Z,28.09
2022-07-30T14:13:58.114Z,28.28
2022-07-30T14:16:45.444Z,28.32
2022-07-30T14:19:22.989Z,28.28
2022-07-30T14:21:55.287Z,28.11
2022-07-30T14:24:25.597Z,28.04
2022-07-30T14:26:58.184Z,28.03
2022-07-30T14:29:28.863Z,28.12
2022-07-30T14:31:58.800Z,28.44
2022-07-30T14:34:31.218Z,28.47
2022-07-30T14:37:01.891Z,28.32
2022-07-30T14:39:31.826Z,28.41
2022-07-30T14:42:01.593Z,28.63
2022-07-30T14:44:32.901Z,28.71
2022-07-30T14:47:03.167Z,28.85
2022-07-30T14:49:36.104Z,28.87
2022-07-30T14:52:06.178Z,28.72
2022-07-30T14:54:35.970Z,28.65
2022-07-30T14:57:08.716Z,28.57
2022-07-30T14:59:39.301Z,28.94
2022-07-30T15:02:10.634Z,29.02
2022-07-30T15:04:43.363Z,29.00
2022-07-30T15:07:13.072Z,29.35
2022-07-30T15:09:42.928Z,29.31
2022-07-30T15:12:13.169Z,29.11
2022-07-30T15:14:49.972Z,29.07
2022-07-30T15:17:22.246Z,28.98
2022-07-30T15:19:54.602Z,29.13
2022-07-30T15:22:24.682Z,28.95
2022-07-30T15:24:54.528Z,29.06
2022-07-30T15:27:33.240Z,29.01
2022-07-30T15:30:04.940Z,28.96
2022-07-30T15:32:34.790Z,28.81
2022-07-30T15:35:13.181Z,28.89
2022-07-30T15:37:43.949Z,28.93
2022-07-30T15:40:14.284Z,28.98
2022-07-30T15:42:44.620Z,28.79
2022-07-30T15:45:17.775Z,28.77
2022-07-30T15:47:48.525Z,28.79
2022-07-30T15:50:21.028Z,29.71
2022-07-30T15:52:50.762Z,29.22
2022-07-30T15:55:20.851Z,29.12
2022-07-30T15:57:51.078Z,29.03
2022-07-30T16:00:20.929Z,28.73
2022-07-30T16:02:50.717Z,28.73
2022-07-30T16:05:23.075Z,28.75
2022-07-30T16:07:52.965Z,28.73
2022-07-30T16:10:22.967Z,28.76
2022-07-30T16:12:52.750Z,28.76
2022-07-30T16:15:22.490Z,28.70
2022-07-30T16:17:52.242Z,28.73
2022-07-30T16:20:24.721Z,28.63
2022-07-30T16:22:54.667Z,28.42
2022-07-30T16:25:24.518Z,28.50
2022-07-30T16:27:54.281Z,28.37
2022-07-30T16:30:27.554Z,28.32
2022-07-30T16:32:57.550Z,28.20
2022-07-30T16:35:34.436Z,28.32
2022-07-30T16:38:20.066Z,28.30
2022-07-30T16:40:52.324Z,28.35
2022-07-30T16:43:25.378Z,28.44
2022-07-30T16:45:56.732Z,28.48
2022-07-30T16:48:27.244Z,28.37
2022-07-30T16:51:00.582Z,28.14
2022-07-30T16:53:32.780Z,28.29
2022-07-30T16:56:05.908Z,28.41
2022-07-30T16:58:36.763Z,28.40
2022-07-30T17:01:08.643Z,28.34
2022-07-30T17:03:39.321Z,28.36
2022-07-30T17:06:13.495Z,28.35
2022-07-30T17:08:48.681Z,28.34
2022-07-30T17:11:47.390Z,28.17
2022-07-30T17:14:12.550Z,28.21
2022-07-30T17:16:44.776Z,28.27
2022-07-30T17:19:15.474Z,28.29
2022-07-30T17:21:49.295Z,28.28
2022-07-30T17:24:22.417Z,28.20
2022-07-30T17:26:54.613Z,27.94
2022-07-30T17:29:25.369Z,28.07
2022-07-30T17:31:56.125Z,28.08
2022-07-30T17:34:27.273Z,27.93
2022-07-30T17:37:01.139Z,27.99
2022-07-30T17:40:18.681Z,27.89
2022-07-30T17:42:25.759Z,27.88
2022-07-30T17:44:59.781Z,27.82
2022-07-30T17:47:30.273Z,27.84
2022-07-30T17:50:00.992Z,27.83
2022-07-30T17:52:34.470Z,27.86
2022-07-30T17:55:05.538Z,27.61
2022-07-30T17:57:36.202Z,27.72
2022-07-30T18:00:15.474Z,27.79
2022-07-30T18:02:46.961Z,27.52
2022-07-30T18:05:17.612Z,27.46
2022-07-30T18:07:57.363Z,27.38
2022-07-30T18:10:28.882Z,27.07
2022-07-30T18:13:22.563Z,26.78
2022-07-30T18:15:52.802Z,27.04
2022-07-30T18:18:24.566Z,27.05
2022-07-30T18:20:54.481Z,27.11
2022-07-30T18:23:28.018Z,26.57
2022-07-30T18:26:05.966Z,26.82
2022-07-30T18:28:36.847Z,26.41
2022-07-30T18:31:08.977Z,26.34
2022-07-30T18:33:38.772Z,26.12
2022-07-30T18:36:11.130Z,26.11
2022-07-30T18:38:43.360Z,26.15
2022-07-30T18:41:13.205Z,26.08
2022-07-30T18:43:47.860Z,25.71
2022-07-30T18:46:18.507Z,25.77
2022-07-30T18:48:51.430Z,25.58
2022-07-30T18:51:25.121Z,25.71
2022-07-30T18:54:01.954Z,25.73
2022-07-30T18:56:37.375Z,25.90
2022-07-30T18:59:08.095Z,27.03
2022-07-30T19:01:39.250Z,26.19
2022-07-30T19:04:10.445Z,26.16
2022-07-30T19:06:40.173Z,25.86
2022-07-30T19:09:17.178Z,26.03
2022-07-30T19:11:49.691Z,25.84
2022-07-30T19:14:24.383Z,25.91
2022-07-30T19:16:54.115Z,25.52
2022-07-30T19:19:32.723Z,25.73
2022-07-30T19:22:03.722Z,25.81
2022-07-30T19:24:36.462Z,25.67
2022-07-30T19:27:11.059Z,25.73
2022-07-30T19:29:45.416Z,25.68
2022-07-30T19:32:16.137Z,25.57
2022-07-30T19:34:49.400Z,25.67
2022-07-30T19:37:20.017Z,25.61
2022-07-30T19:40:05.274Z,25.47
2022-07-30T19:42:36.740Z,25.00
2022-07-30T19:48:03.071Z,25.16
2022-07-30T19:50:35.712Z,25.13
2022-07-30T19:53:06.919Z,24.88
2022-07-30T19:55:39.652Z,24.77
2022-07-30T19:58:16.461Z,24.52
2022-07-30T20:00:49.421Z,24.25
2022-07-30T20:03:26.007Z,24.17
2022-07-30T20:06:00.552Z,23.94
2022-07-30T20:08:30.340Z,23.90
2022-07-30T20:11:02.617Z,23.87
2022-07-30T20:13:44.020Z,23.80
2022-07-30T20:16:19.787Z,23.82
2022-07-30T20:18:49.692Z,24.94
2022-07-30T20:21:21.181Z,23.95
2022-07-30T20:24:12.295Z,23.76
2022-07-30T20:26:47.849Z,23.77
2022-07-30T20:29:19.526Z,23.50
2022-07-30T20:31:50.718Z,23.37
2022-07-30T20:34:25.912Z,23.37
2022-07-30T20:36:57.509Z,23.27
2022-07-30T20:39:27.498Z,23.43
2022-07-30T20:42:12.073Z,23.38
2022-07-30T20:44:44.492Z,23.41
2022-07-30T20:47:34.791Z,23.56
2022-07-30T20:50:10.560Z,23.58
2022-07-30T20:52:40.968Z,23.61
2022-07-30T20:55:22.056Z,23.65
2022-07-30T20:58:00.403Z,23.66
2022-07-30T21:00:49.616Z,23.50
2022-07-30T21:03:21.562Z,23.59
2022-07-30T21:05:52.506Z,23.66
2022-07-30T21:08:25.593Z,23.32
2022-07-30T21:10:57.063Z,23.52
2022-07-30T21:13:30.381Z,23.61
2022-07-30T21:16:03.583Z,23.53
2022-07-30T21:18:34.807Z,23.44
2022-07-30T21:21:05.504Z,23.46
2022-07-30T21:23:38.278Z,23.36
2022-07-30T21:26:13.456Z,23.37
2022-07-30T21:28:46.163Z,23.31
2022-07-30T21:31:15.873Z,22.98
2022-07-30T21:33:46.562Z,22.96
2022-07-30T21:36:16.529Z,23.09
2022-07-30T21:38:55.715Z,23.18
2022-07-30T21:41:37.574Z,23.12
2022-07-30T21:44:14.091Z,23.15
2022-07-30T21:46:47.850Z,23.10
2022-07-30T21:49:18.367Z,23.06
2022-07-30T21:51:48.974Z,23.10
2022-07-30T21:54:28.714Z,23.06
2022-07-30T21:56:58.729Z,23.06
2022-07-30T21:59:31.460Z,23.04
2022-07-30T22:02:02.839Z,23.01
2022-07-30T22:04:33.803Z,24.18
2022-07-30T22:07:03.544Z,23.47
2022-07-30T22:09:34.735Z,23.08
2022-07-30T22:12:09.245Z,23.06
2022-07-30T22:14:44.215Z,22.84
2022-07-30T22:17:23.417Z,22.95
2022-07-30T22:19:54.760Z,23.03
2022-07-30T22:22:26.531Z,23.07
2022-07-30T22:25:00.047Z,23.01
2022-07-30T22:27:40.360Z,22.95
2022-07-30T22:30:26.370Z,22.91
2022-07-30T22:32:56.588Z,22.96
2022-07-30T22:38:16.294Z,22.71
2022-07-30T22:40:46.173Z,22.74
2022-07-30T22:43:16.675Z,22.72
2022-07-30T22:45:50.132Z,22.76
2022-07-30T22:48:25.298Z,22.78
2022-07-30T22:50:58.490Z,22.79
2022-07-30T22:54:03.680Z,22.80
2022-07-30T22:56:25.390Z,22.74
2022-07-30T22:58:55.275Z,22.48
2022-07-30T23:01:28.683Z,22.99
2022-07-30T23:04:01.380Z,22.78
2022-07-30T23:06:33.264Z,22.30
2022-07-30T23:09:05.007Z,22.58
2022-07-30T23:11:37.385Z,22.53
2022-07-30T23:12:16.491Z,25.28
2022-07-30T23:12:33.211Z,22.78
2022-07-30T23:14:09.085Z,22.51
2022-07-30T23:16:42.906Z,22.44
2022-07-30T23:19:21.745Z,22.46
2022-07-30T23:21:53.057Z,22.47
2022-07-30T23:24:22.781Z,22.44
2022-07-30T23:26:53.585Z,21.87
2022-07-30T23:29:24.233Z,22.36
2022-07-30T23:31:57.614Z,22.10
2022-07-30T23:34:27.377Z,21.99
2022-07-30T23:36:58.222Z,22.16
2022-07-30T23:39:29.158Z,22.11
2022-07-30T23:42:00.004Z,22.14
2022-07-30T23:44:34.279Z,21.93
2022-07-30T23:47:11.216Z,22.10
2022-07-30T23:49:44.286Z,22.03
2022-07-30T23:52:15.140Z,22.04
2022-07-30T23:54:45.906Z,21.98
2022-07-30T23:57:16.714Z,22.01
2022-07-30T23:59:48.423Z,21.97
